createdAt,value
2023-04-15T00:00:04.151Z,3.07
2023-04-15T00:03:28.888Z,2.00
2023-04-15T00:06:53.151Z,1.70
2023-04-15T00:10:17.206Z,1.50
2023-04-15T00:13:39.581Z,1.57
2023-04-15T00:17:01.423Z,1.40
2023-04-15T00:20:25.539Z,1.50
2023-04-15T00:23:52.604Z,1.47
2023-04-15T00:27:14.412Z,1.38
2023-04-15T00:30:38.181Z,1.20
2023-04-15T00:34:00.540Z,1.17
2023-04-15T00:37:22.700Z,1.50
2023-04-15T00:40:44.525Z,1.37
2023-04-15T00:44:07.293Z,1.63
2023-04-15T00:47:29.953Z,1.30
2023-04-15T00:50:52.021Z,1.67
2023-04-15T00:54:16.313Z,2.20
2023-04-15T00:57:45.062Z,1.80
2023-04-15T01:04:30.890Z,1.53
2023-04-15T01:07:53.074Z,2.00
2023-04-15T01:11:15.777Z,1.93
2023-04-15T01:14:39.721Z,1.53
2023-04-15T01:18:03.211Z,2.10
2023-04-15T01:21:25.269Z,1.97
2023-04-15T01:24:57.132Z,1.73
2023-04-15T01:28:18.872Z,2.07
2023-04-15T01:31:40.598Z,2.27
2023-04-15T01:35:04.942Z,2.65
2023-04-15T01:38:33.330Z,2.30
2023-04-15T01:41:54.889Z,2.72
2023-04-15T01:45:16.772Z,2.50
2023-04-15T01:48:41.384Z,2.77
2023-04-15T01:52:03.051Z,2.53
2023-04-15T01:55:24.614Z,2.30
2023-04-15T01:58:48.497Z,2.77
2023-04-15T02:02:12.656Z,2.83
2023-04-15T02:05:39.149Z,2.60
2023-04-15T02:09:04.345Z,2.40
2023-04-15T02:12:28.221Z,2.87
2023-04-15T02:15:52.433Z,2.43
2023-04-15T02:19:16.319Z,3.07
2023-04-15T02:22:37.880Z,2.53
2023-04-15T02:26:00.063Z,2.20
2023-04-15T02:29:22.949Z,2.37
2023-04-15T02:32:45.302Z,2.23
2023-04-15T02:36:08.366Z,2.70
2023-04-15T02:39:35.297Z,2.70
2023-04-15T02:43:00.388Z,2.33
2023-04-15T02:46:24.176Z,2.63
2023-04-15T02:49:48.378Z,2.50
2023-04-15T02:53:14.629Z,2.55
2023-04-15T02:56:38.821Z,5.93
2023-04-15T03:00:05.979Z,3.63
2023-04-15T03:03:28.694Z,2.93
2023-04-15T03:06:50.692Z,2.10
2023-04-15T03:10:15.557Z,2.47
2023-04-15T03:13:41.835Z,2.25
2023-04-15T03:17:03.496Z,1.90
2023-04-15T03:20:25.127Z,1.80
2023-04-15T03:23:49.847Z,1.92
2023-04-15T03:27:11.444Z,1.90
2023-04-15T03:30:33.112Z,1.90
2023-04-15T03:33:54.714Z,1.83
2023-04-15T03:37:16.528Z,2.43
2023-04-15T03:40:39.424Z,5.30
2023-04-15T03:44:03.554Z,2.20
2023-04-15T03:47:25.166Z,2.00
2023-04-15T03:50:49.322Z,1.67
2023-04-15T03:54:15.322Z,1.88
2023-04-15T03:57:39.081Z,1.58
2023-04-15T04:01:01.082Z,1.60
2023-04-15T04:04:28.211Z,6.10
2023-04-15T04:07:50.166Z,1.67
2023-04-15T04:11:11.821Z,1.98
2023-04-15T04:14:35.699Z,1.90
2023-04-15T04:17:57.323Z,1.80
2023-04-15T04:21:21.733Z,2.08
2023-04-15T04:24:43.347Z,1.90
2023-04-15T04:28:07.411Z,1.80
2023-04-15T04:31:31.709Z,2.33
2023-04-15T04:34:53.369Z,2.30
2023-04-15T04:38:14.948Z,2.05
2023-04-15T04:41:41.784Z,1.90
2023-04-15T04:45:03.567Z,1.58
2023-04-15T04:48:25.193Z,1.73
2023-04-15T04:51:49.746Z,1.95
2023-04-15T04:55:11.688Z,1.52
2023-04-15T04:58:33.263Z,1.88
2023-04-15T05:01:57.263Z,1.90
2023-04-15T05:05:21.508Z,1.60
2023-04-15T05:08:43.467Z,2.10
2023-04-15T05:12:05.436Z,1.73
2023-04-15T05:15:27.080Z,1.80
2023-04-15T05:18:53.713Z,2.20
2023-04-15T05:22:15.584Z,1.92
2023-04-15T05:25:37.249Z,2.03
2023-04-15T05:28:58.994Z,1.98
2023-04-15T05:32:20.855Z,1.73
2023-04-15T05:35:45.439Z,1.92
2023-04-15T05:39:07.180Z,1.90
2023-04-15T05:42:30.945Z,1.63
2023-04-15T05:45:57.139Z,1.85
2023-04-15T05:49:21.212Z,1.92
2023-04-15T05:52:46.111Z,2.00
2023-04-15T05:56:08.108Z,1.70
2023-04-15T05:59:34.731Z,1.48
2023-04-15T06:03:02.146Z,1.58
2023-04-15T06:06:24.294Z,1.42
2023-04-15T06:09:46.023Z,1.70
2023-04-15T06:13:08.054Z,2.47
2023-04-15T06:16:29.648Z,1.77
2023-04-15T06:19:56.521Z,2.05
2023-04-15T06:23:22.578Z,2.25
2023-04-15T06:26:44.217Z,2.15
2023-04-15T06:30:09.238Z,2.53
2023-04-15T06:33:31.784Z,1.90
2023-04-15T06:36:57.906Z,1.98
2023-04-15T06:40:24.775Z,2.00
2023-04-15T06:43:46.733Z,2.05
2023-04-15T06:47:09.205Z,1.90
2023-04-15T06:50:30.894Z,1.73
2023-04-15T06:53:55.064Z,2.00
2023-04-15T06:57:16.678Z,1.80
2023-04-15T07:00:39.330Z,1.88
2023-04-15T07:04:01.372Z,1.77
2023-04-15T07:07:22.922Z,2.03
2023-04-15T07:10:44.632Z,1.33
2023-04-15T07:14:06.864Z,1.13
2023-04-15T07:17:28.512Z,1.30
2023-04-15T07:20:50.098Z,1.13
2023-04-15T07:24:16.948Z,1.17
2023-04-15T07:27:38.536Z,1.17
2023-04-15T07:31:00.269Z,1.23
2023-04-15T07:34:24.643Z,1.13
2023-04-15T07:37:48.734Z,1.20
2023-04-15T07:41:10.661Z,1.33
2023-04-15T07:44:34.792Z,0.88
2023-04-15T07:47:56.812Z,1.20
2023-04-15T07:51:23.720Z,1.10
2023-04-15T07:54:45.655Z,2.00
2023-04-15T07:58:07.269Z,1.00
2023-04-15T08:01:31.593Z,1.00
2023-04-15T08:04:54.116Z,1.10
2023-04-15T08:08:15.755Z,1.10
2023-04-15T08:11:40.363Z,0.98
2023-04-15T08:15:04.629Z,0.80
2023-04-15T08:18:30.945Z,0.68
2023-04-15T08:21:52.574Z,0.80
2023-04-15T08:25:16.677Z,0.70
2023-04-15T08:28:40.215Z,0.70
2023-04-15T08:32:02.138Z,1.00
2023-04-15T08:35:23.720Z,0.70
2023-04-15T08:38:45.697Z,0.70
2023-04-15T08:42:16.495Z,0.60
2023-04-15T08:45:40.220Z,0.70
2023-04-15T08:49:05.149Z,0.90
2023-04-15T08:52:27.333Z,0.80
2023-04-15T08:55:52.444Z,0.52
2023-04-15T08:59:16.546Z,0.50
2023-04-15T09:02:39.308Z,0.47
2023-04-15T09:06:04.145Z,0.55
2023-04-15T09:09:27.954Z,0.63
2023-04-15T09:12:49.806Z,0.68
2023-04-15T09:16:13.785Z,0.57
2023-04-15T09:19:35.542Z,0.70
2023-04-15T09:22:59.339Z,0.45
2023-04-15T09:26:40.458Z,0.50
2023-04-15T09:30:11.174Z,0.30
2023-04-15T09:33:32.868Z,0.38
2023-04-15T09:36:56.939Z,0.60
2023-04-15T09:40:36.088Z,0.50
2023-04-15T09:43:57.799Z,0.47
2023-04-15T09:47:34.584Z,0.60
2023-04-15T09:50:58.696Z,0.30
2023-04-15T09:54:26.611Z,0.50
2023-04-15T09:57:50.554Z,0.40
2023-04-15T10:01:12.447Z,0.70
2023-04-15T10:04:37.429Z,0.30
2023-04-15T10:07:59.391Z,0.40
2023-04-15T10:11:25.135Z,0.22
2023-04-15T10:14:56.870Z,0.50
2023-04-15T10:18:21.751Z,0.40
2023-04-15T10:21:46.326Z,0.30
2023-04-15T10:25:11.074Z,0.35
2023-04-15T10:28:32.696Z,0.40
2023-04-15T10:31:58.550Z,0.88
2023-04-15T10:35:22.460Z,1.27
2023-04-15T10:38:48.331Z,1.15
2023-04-15T10:42:16.892Z,0.82
2023-04-15T10:49:08.317Z,0.85
2023-04-15T10:52:29.918Z,0.65
2023-04-15T10:55:56.513Z,0.40
2023-04-15T10:59:18.118Z,0.50
2023-04-15T11:02:59.096Z,0.32
2023-04-15T11:06:20.837Z,0.25
2023-04-15T11:09:42.400Z,0.17
2023-04-15T11:13:14.968Z,0.30
2023-04-15T11:16:45.540Z,0.70
2023-04-15T11:20:09.100Z,0.52
2023-04-15T11:23:35.458Z,0.15
2023-04-15T11:27:02.341Z,0.22
2023-04-15T11:30:35.060Z,0.30
2023-04-15T11:33:59.449Z,0.40
2023-04-15T11:37:32.312Z,0.65
2023-04-15T11:40:56.279Z,0.40
2023-04-15T11:44:22.851Z,0.55
2023-04-15T11:47:44.466Z,0.30
2023-04-15T11:51:07.813Z,0.20
2023-04-15T11:54:29.405Z,0.20
2023-04-15T11:58:26.698Z,0.30
2023-04-15T12:01:52.447Z,0.20
2023-04-15T12:05:14.155Z,0.47
2023-04-15T12:09:09.810Z,0.15
2023-04-15T12:12:31.509Z,0.15
2023-04-15T12:15:55.861Z,0.47
2023-04-15T12:19:46.089Z,0.40
2023-04-15T12:23:10.599Z,0.43
2023-04-15T12:26:43.650Z,0.35
2023-04-15T12:30:05.994Z,0.38
2023-04-15T12:33:36.230Z,0.43
2023-04-15T12:36:59.458Z,0.70
2023-04-15T12:40:21.146Z,0.70
2023-04-15T12:43:48.031Z,1.20
2023-04-15T12:47:10.987Z,1.00
2023-04-15T12:50:32.602Z,1.10
2023-04-15T12:53:54.611Z,1.13
2023-04-15T12:57:18.389Z,0.95
2023-04-15T13:00:40.182Z,0.98
2023-04-15T13:04:02.309Z,1.13
2023-04-15T13:07:27.024Z,1.40
2023-04-15T13:10:48.609Z,1.30
2023-04-15T13:14:13.694Z,1.02
2023-04-15T13:17:38.852Z,1.00
2023-04-15T13:21:01.308Z,1.00
2023-04-15T13:24:22.835Z,0.90
2023-04-15T13:27:44.583Z,0.98
2023-04-15T13:31:08.948Z,1.00
2023-04-15T13:34:33.509Z,1.15
2023-04-15T13:37:59.808Z,0.90
2023-04-15T13:41:21.467Z,0.90
2023-04-15T13:44:43.090Z,1.25
2023-04-15T13:48:04.821Z,1.30
2023-04-15T13:51:28.948Z,1.02
2023-04-15T13:55:07.294Z,1.10
2023-04-15T13:58:40.467Z,1.08
2023-04-15T14:02:04.612Z,0.90
2023-04-15T14:05:26.416Z,0.85
2023-04-15T14:08:50.423Z,1.35
2023-04-15T14:12:14.857Z,1.20
2023-04-15T14:15:36.497Z,1.15
2023-04-15T14:19:01.076Z,0.82
2023-04-15T14:22:22.689Z,1.60
2023-04-15T14:25:48.391Z,1.20
2023-04-15T14:29:10.480Z,1.30
2023-04-15T14:32:32.087Z,1.48
2023-04-15T14:35:53.750Z,1.42
2023-04-15T14:39:15.337Z,1.30
2023-04-15T14:42:36.974Z,6.60
2023-04-15T14:45:58.582Z,1.33
2023-04-15T14:49:22.917Z,1.13
2023-04-15T14:52:44.508Z,0.95
2023-04-15T14:56:09.401Z,0.75
2023-04-15T14:59:31.008Z,0.70
2023-04-15T15:02:54.899Z,0.82
2023-04-15T15:06:18.753Z,0.60
2023-04-15T15:09:40.464Z,0.38
2023-04-15T15:13:06.274Z,0.30
2023-04-15T15:16:30.370Z,0.35
2023-04-15T15:19:57.474Z,0.43
2023-04-15T15:23:19.135Z,0.20
2023-04-15T15:26:42.810Z,0.40
2023-04-15T15:30:04.627Z,0.30
2023-04-15T15:33:27.168Z,0.40
2023-04-15T15:36:49.686Z,0.40
2023-04-15T15:40:12.170Z,0.70
2023-04-15T15:43:33.968Z,0.70
2023-04-15T15:46:58.689Z,0.50
2023-04-15T15:50:22.964Z,0.57
2023-04-15T15:53:44.894Z,0.40
2023-04-15T15:57:09.324Z,0.43
2023-04-15T16:00:31.025Z,0.60
2023-04-15T16:03:55.041Z,0.30
2023-04-15T16:07:16.840Z,0.60
2023-04-15T16:10:43.100Z,0.45
2023-04-15T16:14:07.195Z,0.77
2023-04-15T16:17:28.798Z,0.52
2023-04-15T16:20:55.364Z,0.70
2023-04-15T16:24:17.269Z,0.80
2023-04-15T16:31:03.647Z,0.63
2023-04-15T16:34:25.243Z,0.73
2023-04-15T16:37:49.303Z,0.80
2023-04-15T16:41:11.082Z,0.93
2023-04-15T16:44:34.931Z,0.60
2023-04-15T16:47:58.798Z,0.52
2023-04-15T16:51:25.904Z,0.93
2023-04-15T16:54:49.855Z,0.80
2023-04-15T16:58:12.212Z,0.77
2023-04-15T17:01:33.895Z,0.60
2023-04-15T17:04:57.784Z,0.75
2023-04-15T17:08:19.350Z,1.00
2023-04-15T17:11:41.063Z,1.48
2023-04-15T17:15:03.168Z,1.33
2023-04-15T17:18:27.004Z,1.30
2023-04-15T17:21:48.561Z,1.20
2023-04-15T17:25:10.354Z,1.10
2023-04-15T17:28:34.100Z,1.00
2023-04-15T17:32:00.658Z,1.20
2023-04-15T17:35:23.425Z,1.10
2023-04-15T17:38:45.724Z,1.35
2023-04-15T17:42:07.278Z,1.58
2023-04-15T17:45:31.521Z,0.90
2023-04-15T17:48:53.108Z,0.85
2023-04-15T17:52:17.030Z,1.10
2023-04-15T17:55:43.296Z,1.10
2023-04-15T17:59:07.660Z,0.80
2023-04-15T18:02:32.694Z,0.90
2023-04-15T18:05:55.999Z,1.02
2023-04-15T18:09:17.574Z,0.77
2023-04-15T18:12:39.588Z,1.00
2023-04-15T18:16:01.184Z,0.82
2023-04-15T18:19:25.786Z,1.00
2023-04-15T18:22:47.443Z,0.93
2023-04-15T18:26:11.661Z,0.95
2023-04-15T18:29:34.512Z,1.30
2023-04-15T18:32:58.492Z,1.10
2023-04-15T18:36:22.421Z,1.33
2023-04-15T18:39:44.025Z,1.42
2023-04-15T18:43:05.715Z,1.48
2023-04-15T18:46:28.262Z,1.17
2023-04-15T18:49:49.831Z,1.30
2023-04-15T18:53:11.494Z,1.63
2023-04-15T18:56:35.306Z,1.80
2023-04-15T18:59:57.366Z,1.65
2023-04-15T19:03:23.551Z,1.77
2023-04-15T19:06:45.403Z,1.55
2023-04-15T19:10:07.938Z,1.38
2023-04-15T19:13:29.733Z,1.63
2023-04-15T19:16:53.716Z,1.70
2023-04-15T19:20:17.724Z,2.20
2023-04-15T19:23:39.733Z,1.90
2023-04-15T19:27:03.664Z,1.35
2023-04-15T19:30:32.339Z,2.10
2023-04-15T19:33:53.975Z,3.00
2023-04-15T19:37:17.760Z,3.80
2023-04-15T19:40:42.203Z,5.03
2023-04-15T19:44:06.756Z,4.47
2023-04-15T19:47:28.615Z,3.60
2023-04-15T19:50:52.384Z,2.47
2023-04-15T19:54:13.964Z,2.65
2023-04-15T19:57:35.606Z,2.65
2023-04-15T20:00:57.528Z,3.13
2023-04-15T20:04:19.258Z,4.32
2023-04-15T20:07:45.206Z,3.25
2023-04-15T20:11:09.770Z,4.82
2023-04-15T20:14:31.372Z,4.15
2023-04-15T20:17:53.063Z,4.53
2023-04-15T20:21:14.704Z,4.15
2023-04-15T20:24:36.330Z,3.15
2023-04-15T20:28:01.224Z,3.40
2023-04-15T20:31:22.982Z,3.60
2023-04-15T20:34:44.831Z,3.20
2023-04-15T20:38:06.483Z,3.35
2023-04-15T20:41:32.592Z,2.55
2023-04-15T20:44:54.530Z,3.03
2023-04-15T20:48:16.198Z,3.53
2023-04-15T20:51:38.048Z,2.60
2023-04-15T20:54:59.751Z,3.03
2023-04-15T20:58:21.482Z,4.00
2023-04-15T21:01:43.520Z,3.08
2023-04-15T21:05:05.824Z,3.15
2023-04-15T21:08:29.720Z,3.00
2023-04-15T21:15:16.130Z,3.78
2023-04-15T21:18:37.736Z,3.33
2023-04-15T21:21:59.714Z,3.28
2023-04-15T21:25:23.483Z,2.80
2023-04-15T21:28:45.443Z,2.50
2023-04-15T21:32:07.253Z,2.63
2023-04-15T21:35:30.327Z,3.30
2023-04-15T21:38:51.976Z,4.10
2023-04-15T21:42:15.861Z,3.35
2023-04-15T21:45:42.986Z,3.28
2023-04-15T21:49:26.761Z,2.90
2023-04-15T21:52:48.312Z,3.63
2023-04-15T21:56:10.106Z,3.40
2023-04-15T21:59:31.702Z,6.90
2023-04-15T22:02:56.102Z,4.43
2023-04-15T22:06:20.106Z,2.92
2023-04-15T22:09:44.403Z,3.25
2023-04-15T22:13:10.984Z,3.58
2023-04-15T22:16:37.244Z,2.92
2023-04-15T22:19:58.841Z,3.03
2023-04-15T22:23:22.675Z,3.33
2023-04-15T22:26:46.543Z,3.60
2023-04-15T22:30:08.814Z,3.35
2023-04-15T22:33:30.394Z,3.03
2023-04-15T22:36:54.545Z,3.40
2023-04-15T22:40:16.509Z,3.40
2023-04-15T22:43:38.179Z,4.10
2023-04-15T22:47:02.291Z,4.30
2023-04-15T22:50:23.954Z,3.58
2023-04-15T22:53:47.769Z,3.95
2023-04-15T22:57:09.453Z,4.03
2023-04-15T23:00:31.109Z,3.80
2023-04-15T23:03:56.265Z,4.60
2023-04-15T23:07:28.196Z,4.55
2023-04-15T23:10:50.730Z,4.30
2023-04-15T23:14:15.013Z,3.80
2023-04-15T23:17:41.198Z,4.50
2023-04-15T23:21:05.498Z,4.40
2023-04-15T23:24:27.125Z,4.10
2023-04-15T23:27:48.673Z,4.10
2023-04-15T23:31:11.486Z,4.85
2023-04-15T23:34:35.142Z,5.43
2023-04-15T23:37:59.063Z,4.90
2023-04-15T23:41:22.113Z,4.32
2023-04-15T23:44:43.718Z,4.10
2023-04-15T23:48:06.259Z,4.60
2023-04-15T23:51:30.062Z,4.68
2023-04-15T23:54:53.900Z,4.35
2023-04-15T23:58:15.636Z,4.70
